Terminal Aerodrome Forecast
Issued by NWS

Home | Current Version | Previous Version | Text Only | Print | Product List | Glossary On
Versions: 1 2 3 4 5 6 7 8 9 10 11 12 13 14 15
000
FTUS45 KABQ 301800 CCA
TAFTCC
TAF COR
KTCC 301800Z 3018/3118 23010G20KT P6SM BKN200
     FM302100 23012G21KT P6SM SCT110 BKN200
     FM310200 25008KT P6SM FEW120 SCT200
     FM310600 29007KT P6SM SCT200
     FM311500 36007KT P6SM SCT200=

USA.gov is the U.S. government's official web portal to all federal, state and local government web resources and services.